Time;durP1;ratioP1;P1;durP2;ratioP2;P2;SDS_P1;SDS_P2;PMS_P1;PMS_P2;Temp;Humidity;BMP_temperature;BMP_pressure;BME280_temperature;BME280_humidity;BME280_pressure;Samples;Min_cycle;Max_cycle;Signal;HPM_P1;HPM_P2
2022/01/12 00:01:13;;;;;;;17.67;9.43;;;;;;;-5.21;77.24;96694.60;1779904;80;21049;-67
2022/01/12 00:03:40;;;;;;;18.03;9.77;;;;;;;-5.29;78.09;96696.72;1787332;80;20970;-67
2022/01/12 00:06:07;;;;;;;23.93;11.13;;;;;;;-5.20;78.21;96713.09;1787360;80;21020;-67
2022/01/12 00:08:34;;;;;;;29.37;13.10;;;;;;;-5.11;78.12;96706.33;1787215;80;21456;-67
2022/01/12 00:11:04;;;;;;;25.53;12.33;;;;;;;-5.04;78.23;96705.49;1786917;80;21028;-67
2022/01/12 00:13:32;;;;;;;19.00;9.40;;;;;;;-4.99;77.82;96701.88;1787069;80;21227;-68
2022/01/12 00:16:03;;;;;;;20.63;9.97;;;;;;;-5.07;76.99;96704.41;1787005;80;20986;-67
2022/01/12 00:18:30;;;;;;;19.70;9.97;;;;;;;-5.16;77.03;96713.77;1787602;80;20996;-67
2022/01/12 00:20:57;;;;;;;21.17;10.03;;;;;;;-5.15;77.14;96708.22;1786926;80;21078;-67
2022/01/12 00:23:26;;;;;;;21.97;10.83;;;;;;;-5.24;77.46;96710.75;1786851;80;20973;-67
2022/01/12 00:26:06;;;;;;;22.20;12.00;;;;;;;-5.29;77.81;96711.24;1786450;80;20994;-67
2022/01/12 00:34:11;;;;;;;23.57;10.80;;;;;;;-5.25;78.65;96720.53;1683730;85;21003;-67
2022/01/12 00:36:38;;;;;;;26.70;12.37;;;;;;;-5.06;79.14;96705.80;1683306;85;21069;-67
2022/01/12 00:39:07;;;;;;;23.03;12.33;;;;;;;-4.95;78.12;96702.96;1709221;82;21029;-67
2022/01/12 00:41:37;;;;;;;21.07;9.93;;;;;;;-4.95;77.73;96716.71;1786856;80;21048;-67
2022/01/12 00:44:09;;;;;;;21.23;10.70;;;;;;;-5.00;78.18;96724.56;1786624;80;21028;-66
2022/01/12 00:46:36;;;;;;;19.13;9.83;;;;;;;-5.05;78.28;96719.14;1787267;80;21058;-67
2022/01/12 00:49:04;;;;;;;19.70;9.40;;;;;;;-4.96;78.10;96716.23;1787124;80;21026;-67
2022/01/12 00:51:33;;;;;;;22.00;9.20;;;;;;;-4.90;77.74;96720.84;1786913;80;21055;-67
2022/01/12 00:54:04;;;;;;;20.57;10.60;;;;;;;-4.81;77.74;96718.82;1787112;80;21071;-67
2022/01/12 00:56:31;;;;;;;22.17;9.97;;;;;;;-4.80;77.39;96725.73;1787113;80;21501;-67
2022/01/12 00:59:00;;;;;;;21.90;9.47;;;;;;;-4.76;77.87;96721.63;1786815;80;21057;-67
2022/01/12 01:01:27;;;;;;;17.87;9.30;;;;;;;-4.70;77.39;96715.57;1786481;80;21091;-67
2022/01/12 01:03:54;;;;;;;19.23;10.20;;;;;;;-4.83;77.06;96708.83;1786945;80;21441;-67
2022/01/12 01:06:22;;;;;;;23.00;10.40;;;;;;;-5.01;78.12;96705.66;1786805;80;21054;-67
2022/01/12 01:08:51;;;;;;;31.30;12.93;;;;;;;-4.94;78.82;96706.89;1787243;80;21437;-67
2022/01/12 01:11:21;;;;;;;30.40;13.97;;;;;;;-5.02;80.65;96701.30;1786816;80;21063;-67
2022/01/12 01:13:58;;;;;;;24.13;10.37;;;;;;;-5.15;81.31;96717.22;1787063;80;21007;-67
2022/01/12 01:16:45;;;;;;;21.00;9.43;;;;;;;-5.33;80.11;96714.05;1787196;80;21125;-67
2022/01/12 01:27:14;;;;;;;21.90;8.47;;;;;;;-6.17;78.33;96720.06;1786846;80;21062;-67
2022/01/12 01:29:42;;;;;;;21.90;8.70;;;;;;;-6.22;78.56;96723.15;1787244;80;20988;-67
2022/01/12 01:32:09;;;;;;;19.77;8.13;;;;;;;-6.24;78.79;96721.75;1786891;80;21087;-67
2022/01/12 01:34:42;;;;;;;16.33;8.40;;;;;;;-6.23;78.55;96722.23;1787006;80;21014;-67
2022/01/12 01:37:07;;;;;;;18.07;8.13;;;;;;;-6.20;78.75;96718.59;1785911;80;21465;-67
2022/01/12 01:39:38;;;;;;;15.13;8.00;;;;;;;-6.25;77.98;96712.25;1786693;80;21086;-67
2022/01/12 01:42:29;;;;;;;19.17;9.63;;;;;;;-6.31;77.60;96710.59;1786785;80;20976;-67
2022/01/12 01:55:40;;;;;;;13.13;4.73;;;;;;;-6.80;77.51;96716.43;1786846;80;21058;-67
2022/01/12 01:58:08;;;;;;;19.93;8.77;;;;;;;-6.99;77.59;96716.87;1786790;80;20999;-67
2022/01/12 02:00:38;;;;;;;12.83;5.70;;;;;;;-7.15;77.87;96719.23;1787041;80;21011;-67
2022/01/12 02:03:07;;;;;;;13.07;5.93;;;;;;;-7.28;77.57;96717.13;1787166;80;21481;-67
2022/01/12 02:05:40;;;;;;;14.40;6.33;;;;;;;-7.40;77.20;96710.77;1786605;80;21528;-67
2022/01/12 02:08:13;;;;;;;15.40;6.63;;;;;;;-7.64;77.34;96714.21;1786725;80;21051;-66
2022/01/12 02:10:46;;;;;;;;;;;;;;;-7.76;77.50;96713.37;1789477;80;20999;-66
2022/01/12 02:13:12;;;;;;;16.17;7.37;;;;;;;-7.90;77.83;96715.87;1780114;80;20105;-67
2022/01/12 02:15:44;;;;;;;16.03;6.90;;;;;;;-7.95;78.19;96718.51;1787022;80;21067;-67
2022/01/12 02:18:18;;;;;;;13.27;5.73;;;;;;;-7.99;78.15;96713.94;1787120;80;21055;-67
2022/01/12 02:35:33;;;;;;;7.00;3.27;;;;;;;-8.35;78.16;96725.94;1788300;80;21026;-67
2022/01/12 02:40:34;;;;;;;9.07;4.87;;;;;;;-8.49;78.08;96721.55;1795422;80;21007;-67
2022/01/12 02:43:12;;;;;;;8.03;3.10;;;;;;;-8.59;78.12;96726.76;1792374;80;21095;-67
2022/01/12 02:51:14;;;;;;;9.37;4.97;;;;;;;-8.73;78.41;96744.96;1795507;80;21402;-66
2022/01/12 02:53:39;;;;;;;8.50;4.30;;;;;;;-8.80;78.16;96756.80;1794605;80;21082;-67
2022/01/12 02:56:12;;;;;;;10.00;4.73;;;;;;;-8.80;78.04;96752.96;1795242;80;21022;-66
2022/01/12 02:58:42;;;;;;;10.70;4.83;;;;;;;-8.75;78.02;96753.80;1795654;80;21006;-67
2022/01/12 03:01:53;;;;;;;9.87;4.30;;;;;;;-8.68;77.88;96753.86;1795395;80;21464;-67
2022/01/12 03:04:07;;;;;;;11.33;5.07;;;;;;;-8.69;77.70;96757.58;1790469;80;21053;-67
2022/01/12 03:06:39;;;;;;;13.93;5.30;;;;;;;-8.65;78.08;96750.23;1795370;80;21064;-66
2022/01/12 03:09:13;;;;;;;9.37;3.90;;;;;;;-8.58;78.29;96756.31;1795294;80;21050;-67
2022/01/12 03:11:42;;;;;;;11.67;4.33;;;;;;;-8.55;78.24;96751.41;1793010;80;21046;-67
2022/01/12 03:14:18;;;;;;;10.25;5.05;;;;;;;-8.51;78.51;96760.22;1795358;80;21062;-67
2022/01/12 03:16:45;;;;;;;10.07;4.70;;;;;;;-8.42;79.02;96763.42;1795134;80;20998;-67
2022/01/12 03:19:13;;;;;;;10.13;5.40;;;;;;;-8.31;78.95;96756.50;1794242;80;21083;-66
2022/01/12 03:21:40;;;;;;;8.33;4.00;;;;;;;-8.18;79.33;96762.98;1790306;80;21042;-67
2022/01/12 03:24:07;;;;;;;6.47;2.57;;;;;;;-8.08;79.43;96765.81;1764008;80;21492;-67
2022/01/12 03:26:35;;;;;;;11.93;5.67;;;;;;;-8.07;79.49;96763.74;1795092;80;21145;-66
2022/01/12 03:29:04;;;;;;;14.63;6.80;;;;;;;-8.06;80.45;96761.30;1795360;80;20979;-66
2022/01/12 03:31:34;;;;;;;13.53;5.57;;;;;;;-7.95;80.51;96759.48;1794872;80;21006;-67
2022/01/12 03:34:10;;;;;;;14.90;5.93;;;;;;;-7.87;81.21;96765.15;1795524;80;21445;-67
2022/01/12 03:39:12;;;;;;;20.53;8.00;;;;;;;-7.80;82.54;96766.08;1786635;80;21022;-67
2022/01/12 03:41:42;;;;;;;23.40;8.80;;;;;;;-7.71;82.92;96770.95;1787060;80;21074;-67
2022/01/12 03:44:14;;;;;;;18.40;7.23;;;;;;;-7.63;83.69;96768.55;1787032;80;20995;-67
2022/01/12 03:46:46;;;;;;;18.03;8.17;;;;;;;-7.63;83.18;96773.28;1786429;80;20988;-67
2022/01/12 03:49:17;;;;;;;21.00;7.77;;;;;;;-7.65;83.58;96776.52;1787300;80;21441;-67
2022/01/12 03:51:48;;;;;;;16.97;6.50;;;;;;;-7.72;84.79;96778.14;1787108;80;21000;-67
2022/01/12 03:54:16;;;;;;;18.97;8.67;;;;;;;-7.76;85.09;96781.27;1787145;80;21027;-66
2022/01/12 03:56:43;;;;;;;18.53;9.30;;;;;;;-7.81;85.18;96777.13;1754036;80;21003;-67
2022/01/12 03:59:10;;;;;;;10.13;4.53;;;;;;;-7.75;84.86;96773.70;1787052;80;21030;-66
2022/01/12 04:01:37;;;;;;;17.77;6.97;;;;;;;-7.77;84.70;96767.97;1786654;80;21003;-67
2022/01/12 04:04:09;;;;;;;16.97;8.00;;;;;;;-7.76;84.59;96768.45;1787167;80;21011;-67
2022/01/12 04:09:20;;;;;;;14.03;7.10;;;;;;;-7.64;83.95;96765.06;1787322;80;20983;-67
2022/01/12 04:11:47;;;;;;;11.70;5.60;;;;;;;-7.64;83.91;96770.20;1787128;80;21011;-67
2022/01/12 04:14:14;;;;;;;16.97;7.70;;;;;;;-7.57;84.13;96775.36;1786988;80;21496;-67
2022/01/12 04:16:41;;;;;;;11.53;6.23;;;;;;;-7.42;84.14;96779.38;1786919;80;21302;-67
2022/01/12 04:19:08;;;;;;;17.63;6.83;;;;;;;-7.31;83.48;96769.85;1787057;80;20991;-68
2022/01/12 04:21:41;;;;;;;16.10;7.30;;;;;;;-7.22;82.53;96768.81;1787169;80;20964;-67
2022/01/12 04:24:04;;;;;;;17.13;8.37;;;;;;;-7.07;82.44;96771.92;1786254;80;20987;-67
2022/01/12 04:26:30;;;;;;;32.17;15.93;;;;;;;-7.03;82.10;96772.60;1786787;80;21133;-67
2022/01/12 04:28:57;;;;;;;24.30;10.60;;;;;;;-6.99;82.34;96780.61;1787480;80;20979;-67
2022/01/12 04:31:24;;;;;;;23.33;10.70;;;;;;;-6.94;82.99;96765.94;1787101;80;21457;-67
2022/01/12 04:33:54;;;;;;;27.07;11.03;;;;;;;-6.80;83.52;96770.32;1787218;80;21046;-67
2022/01/12 04:36:22;;;;;;;26.80;11.67;;;;;;;-6.70;83.68;96773.07;1791593;80;21002;-67
2022/01/12 04:38:49;;;;;;;30.50;13.57;;;;;;;-6.67;83.23;96770.73;1759070;80;21609;-67
2022/01/12 04:41:17;;;;;;;40.97;17.40;;;;;;;-6.65;83.02;96766.20;1795231;80;21038;-67
2022/01/12 04:43:45;;;;;;;16.87;7.33;;;;;;;-6.60;82.99;96766.10;1795534;80;21512;-67
2022/01/12 04:51:10;;;;;;;16.03;6.80;;;;;;;-6.38;80.82;96770.93;1795468;80;21074;-67
2022/01/12 04:53:42;;;;;;;14.70;7.63;;;;;;;-6.33;80.54;96770.83;1795298;80;21029;-67
2022/01/12 04:56:08;;;;;;;24.67;10.13;;;;;;;-6.28;79.61;96773.70;1794563;80;21469;-67
2022/01/12 04:58:35;;;;;;;46.00;21.23;;;;;;;-6.29;79.44;96764.23;1759857;80;20967;-67
2022/01/12 05:01:07;;;;;;;59.50;28.43;;;;;;;-6.37;79.20;96771.45;1795303;80;21034;-67
2022/01/12 05:09:39;;;;;;;19.17;9.70;;;;;;;-6.94;78.83;96783.89;1795571;80;20967;-67
2022/01/12 05:14:25;;;;;;;16.23;6.80;;;;;;;-7.35;78.84;96793.52;1795211;80;21018;-67
2022/01/12 05:16:53;;;;;;;15.93;7.33;;;;;;;-7.56;78.61;96797.64;1764204;80;20983;-67
2022/01/12 05:19:20;;;;;;;25.30;9.50;;;;;;;-7.63;78.87;96795.45;1795444;80;21041;-67
2022/01/12 05:21:46;;;;;;;22.30;10.60;;;;;;;-7.77;78.70;96806.40;1795577;80;20982;-66
2022/01/12 05:24:14;;;;;;;25.50;9.50;;;;;;;-7.91;78.87;96807.97;1795230;80;21066;-67
2022/01/12 05:26:40;;;;;;;35.27;14.40;;;;;;;-8.01;79.12;96817.06;1795345;80;20998;-67
2022/01/12 05:29:09;;;;;;;33.73;14.37;;;;;;;-8.15;79.64;96827.61;1795214;80;21081;-67
2022/01/12 05:31:36;;;;;;;14.83;7.17;;;;;;;-8.06;79.74;96825.72;1794956;80;21058;-67
2022/01/12 05:34:03;;;;;;;9.47;4.23;;;;;;;-7.98;80.00;96830.11;1795282;80;21113;-67
2022/01/12 05:36:32;;;;;;;16.43;7.47;;;;;;;-7.93;79.87;96834.78;1791060;80;20994;-67
2022/01/12 05:39:01;;;;;;;15.07;6.53;;;;;;;-7.87;80.46;96825.35;1787198;80;21505;-67
2022/01/12 05:41:28;;;;;;;14.10;6.10;;;;;;;-7.77;80.29;96833.30;1787035;80;21025;-67
2022/01/12 05:43:57;;;;;;;18.07;8.53;;;;;;;-7.68;80.16;96829.72;1786948;80;21003;-66
2022/01/12 05:46:27;;;;;;;26.80;11.13;;;;;;;-7.61;80.37;96832.31;1786925;80;21533;-67
2022/01/12 05:51:43;;;;;;;28.40;10.77;;;;;;;-7.54;79.74;96841.33;1785199;80;21062;-66
2022/01/12 05:54:11;;;;;;;21.63;10.00;;;;;;;-7.56;79.24;96843.77;1786839;80;21007;-66
2022/01/12 05:56:38;;;;;;;52.67;20.70;;;;;;;-7.65;78.89;96841.86;1787276;80;21425;-66
2022/01/12 05:59:07;;;;;;;62.83;23.23;;;;;;;-7.77;79.54;96850.84;1786898;80;21505;-67
2022/01/12 06:01:34;;;;;;;47.90;17.93;;;;;;;-7.73;80.49;96854.53;1786795;80;20999;-67
2022/01/12 06:04:01;;;;;;;29.17;12.73;;;;;;;-7.71;81.97;96855.14;1787121;80;21487;-67
2022/01/12 06:06:31;;;;;;;23.57;11.30;;;;;;;-7.69;82.03;96861.63;1786927;80;21014;-67
2022/01/12 06:08:58;;;;;;;40.43;19.20;;;;;;;-7.78;82.29;96865.73;1754127;80;21034;-67
2022/01/12 06:11:26;;;;;;;26.70;11.33;;;;;;;-7.73;82.06;96866.95;1787127;80;20963;-67
2022/01/12 06:13:56;;;;;;;26.70;10.20;;;;;;;-7.67;82.55;96872.89;1785973;80;20987;-67
2022/01/12 06:16:24;;;;;;;38.23;16.67;;;;;;;-7.76;83.27;96868.02;1787027;80;21075;-67
2022/01/12 06:18:52;;;;;;;35.03;13.03;;;;;;;-7.75;83.43;96863.77;1786727;80;21003;-67
2022/01/12 06:21:18;;;;;;;26.93;11.47;;;;;;;-7.83;83.78;96872.20;1786877;80;21062;-67
2022/01/12 06:23:52;;;;;;;17.63;8.97;;;;;;;-7.90;82.97;96885.34;1785398;80;21027;-66
2022/01/12 06:26:24;;;;;;;14.23;6.53;;;;;;;-8.19;80.78;96882.84;1786540;80;21107;-67
2022/01/12 06:29:14;;;;;;;16.13;7.17;;;;;;;-8.33;79.07;96892.05;1786616;80;21059;-67
2022/01/12 06:31:26;;;;;;;14.50;6.50;;;;;;;-8.44;78.48;96890.41;1776109;80;21059;-67
2022/01/12 06:33:49;;;;;;;15.30;6.77;;;;;;;-8.52;78.02;96888.56;1785988;80;20995;-67
2022/01/12 06:36:19;;;;;;;15.67;6.93;;;;;;;-8.72;77.07;96898.59;1789445;80;21037;-67
2022/01/12 06:38:46;;;;;;;14.77;6.93;;;;;;;-8.84;76.98;96898.05;1795395;80;20994;-67
2022/01/12 06:41:14;;;;;;;23.93;10.73;;;;;;;-8.90;77.08;96893.33;1795316;80;21056;-67
2022/01/12 06:43:45;;;;;;;15.13;7.47;;;;;;;-9.08;77.05;96899.61;1795267;80;20979;-67
2022/01/12 06:46:22;;;;;;;14.03;6.60;;;;;;;-9.11;77.00;96893.88;1795471;80;21018;-67
2022/01/12 06:48:41;;;;;;;21.57;10.73;;;;;;;-9.18;76.49;96896.33;1793006;80;21101;-67
2022/01/12 06:51:08;;;;;;;32.87;16.00;;;;;;;-9.42;76.95;96905.56;1795501;80;20959;-67
2022/01/12 06:53:36;;;;;;;18.47;10.07;;;;;;;-9.46;77.80;96906.08;1795019;80;21579;-67
2022/01/12 06:56:04;;;;;;;14.43;8.70;;;;;;;-9.32;78.42;96902.42;1795649;80;20986;-68
2022/01/12 06:58:32;;;;;;;35.93;15.67;;;;;;;-9.27;78.23;96908.78;1795511;80;21034;-67
2022/01/12 07:00:59;;;;;;;17.00;7.60;;;;;;;-9.23;78.95;96904.03;1795211;80;21034;-69
2022/01/12 07:03:27;;;;;;;16.67;8.30;;;;;;;-9.06;78.93;96900.23;1795344;80;20998;-67
2022/01/12 07:05:55;;;;;;;16.37;7.93;;;;;;;-8.94;78.83;96910.12;1795233;80;21504;-67
2022/01/12 07:08:22;;;;;;;21.20;10.40;;;;;;;-8.81;79.48;96902.99;1795402;80;21026;-67
2022/01/12 07:10:49;;;;;;;16.80;7.83;;;;;;;-8.71;81.00;96905.47;1795361;80;21002;-67
2022/01/12 07:13:18;;;;;;;30.60;11.27;;;;;;;-8.67;79.32;96910.81;1794756;80;21057;-67
2022/01/12 07:15:49;;;;;;;21.23;10.27;;;;;;;-8.70;78.07;96910.19;1795119;80;21512;-67
2022/01/12 07:18:19;;;;;;;24.33;11.60;;;;;;;-8.81;77.77;96911.95;1795316;80;20962;-67
2022/01/12 07:20:45;;;;;;;29.70;12.90;;;;;;;-8.71;77.83;96915.70;1795728;80;21101;-67
2022/01/12 07:23:11;;;;;;;31.83;15.03;;;;;;;-8.71;77.94;96918.27;1795487;80;20999;-67
2022/01/12 07:25:40;;;;;;;27.73;14.53;;;;;;;-8.65;77.65;96915.66;1795260;80;20999;-67
2022/01/12 07:28:07;;;;;;;41.00;18.27;;;;;;;-8.54;77.30;96923.74;1795469;80;21061;-67
2022/01/12 07:30:33;;;;;;;34.90;14.13;;;;;;;-8.36;77.20;96930.63;1795393;80;21492;-67
2022/01/12 07:33:02;;;;;;;35.63;16.57;;;;;;;-8.40;77.08;96934.64;1795363;80;21042;-67
2022/01/12 07:35:29;;;;;;;38.67;15.77;;;;;;;-8.32;77.63;96938.62;1794844;80;21600;-67
2022/01/12 07:38:00;;;;;;;43.20;17.57;;;;;;;-8.23;77.57;96943.95;1788139;80;21473;-67
2022/01/12 07:40:27;;;;;;;60.53;21.37;;;;;;;-8.09;78.24;96936.52;1787341;80;21022;-67
2022/01/12 07:42:53;;;;;;;42.60;15.90;;;;;;;-8.05;78.59;96941.45;1787185;80;20999;-67
2022/01/12 07:45:22;;;;;;;20.87;8.90;;;;;;;-8.04;79.53;96947.07;1786978;80;21098;-67
2022/01/12 07:47:48;;;;;;;30.47;10.80;;;;;;;-8.08;80.33;96944.69;1786739;80;21019;-67
2022/01/12 07:50:15;;;;;;;24.87;9.17;;;;;;;-8.07;81.73;96946.85;1787027;80;20992;-66
2022/01/12 07:52:42;;;;;;;27.33;10.63;;;;;;;-7.93;81.87;96948.77;1787155;80;21073;-66
2022/01/12 07:55:09;;;;;;;16.23;6.73;;;;;;;-7.92;81.71;96949.26;1786867;80;21568;-67
2022/01/12 07:57:36;;;;;;;12.40;5.73;;;;;;;-8.04;82.33;96958.59;1786890;80;21091;-66
2022/01/12 08:00:05;;;;;;;21.00;9.47;;;;;;;-8.18;82.82;96958.87;1787350;80;21006;-66
2022/01/12 08:02:33;;;;;;;33.07;13.70;;;;;;;-7.97;82.64;96954.43;1785924;80;21018;-66
2022/01/12 08:05:02;;;;;;;36.07;14.13;;;;;;;-7.66;82.56;96961.43;1786930;80;21034;-67
2022/01/12 08:07:28;;;;;;;23.53;9.53;;;;;;;-7.52;81.77;96953.44;1786125;80;21007;-67
2022/01/12 08:09:56;;;;;;;37.30;17.60;;;;;;;-7.45;80.97;96950.54;1782266;80;21026;-66
2022/01/12 08:12:23;;;;;;;40.67;21.03;;;;;;;-7.26;80.64;96952.73;1787066;80;21480;-66
2022/01/12 08:14:49;;;;;;;36.73;15.53;;;;;;;-6.94;79.53;96941.69;1786895;80;20992;-67
2022/01/12 08:17:16;;;;;;;29.73;13.47;;;;;;;-6.74;78.85;96946.52;1787173;80;21031;-66
2022/01/12 08:19:42;;;;;;;46.93;21.57;;;;;;;-6.60;77.64;96948.73;1787105;80;21011;-67
2022/01/12 08:22:09;;;;;;;30.97;14.03;;;;;;;-6.44;76.66;96954.14;1787179;80;20975;-67
2022/01/12 08:24:35;;;;;;;28.47;13.17;;;;;;;-6.27;75.47;96946.30;1787259;80;21045;-67
2022/01/12 08:27:04;;;;;;;26.47;12.30;;;;;;;-6.19;74.93;96954.13;1787026;80;21513;-66
2022/01/12 08:29:31;;;;;;;24.57;11.63;;;;;;;-6.22;72.73;96960.34;1787261;80;21069;-67
2022/01/12 08:31:59;;;;;;;37.50;14.97;;;;;;;-6.16;72.55;96954.72;1786917;80;21030;-66
2022/01/12 08:34:26;;;;;;;28.20;13.03;;;;;;;-6.10;72.00;96961.17;1786853;80;21505;-67
2022/01/12 08:36:54;;;;;;;30.17;12.77;;;;;;;-5.96;72.08;96950.52;1786949;80;21078;-67
2022/01/12 08:39:21;;;;;;;23.77;10.13;;;;;;;-5.90;71.18;96957.69;1786869;80;21079;-67
2022/01/12 08:41:48;;;;;;;19.77;9.40;;;;;;;-5.80;71.63;96949.80;1787246;80;20979;-67
2022/01/12 08:44:15;;;;;;;22.60;9.43;;;;;;;-5.63;70.91;96953.48;1787321;80;21484;-67
2022/01/12 08:46:41;;;;;;;22.27;10.43;;;;;;;-5.52;69.54;96952.87;1786887;80;21042;-70
2022/01/12 08:49:09;;;;;;;18.57;9.37;;;;;;;-5.44;68.95;96956.45;1787220;80;20947;-67
2022/01/12 08:51:37;;;;;;;18.20;8.67;;;;;;;-5.32;68.26;96960.59;1787245;80;21470;-66
2022/01/12 08:54:05;;;;;;;18.00;9.70;;;;;;;-5.33;67.24;96962.69;1786687;80;21031;-67
2022/01/12 08:56:32;;;;;;;22.70;9.87;;;;;;;-5.24;68.75;96959.42;1787143;80;20978;-66
2022/01/12 08:59:00;;;;;;;16.63;9.03;;;;;;;-5.05;68.16;96969.18;1786814;80;21509;-67
2022/01/12 09:01:27;;;;;;;21.60;9.10;;;;;;;-4.88;68.25;96967.67;1787112;80;21003;-66
2022/01/12 09:03:53;;;;;;;20.00;9.07;;;;;;;-4.81;67.32;96965.58;1786751;80;21481;-67
2022/01/12 09:06:20;;;;;;;20.20;9.70;;;;;;;-4.71;66.89;96965.75;1786865;80;21102;-66
2022/01/12 09:08:49;;;;;;;19.57;8.97;;;;;;;-4.88;66.16;96958.66;1787080;80;21461;-67
2022/01/12 09:11:18;;;;;;;17.43;8.73;;;;;;;-4.86;65.77;96964.80;1786857;80;21145;-67
2022/01/12 09:13:49;;;;;;;18.43;9.97;;;;;;;-4.71;66.39;96958.03;1787153;80;20967;-66
2022/01/12 09:16:16;;;;;;;14.47;7.27;;;;;;;-4.51;66.34;96962.20;1787350;80;21023;-66
2022/01/12 09:18:43;;;;;;;14.97;7.30;;;;;;;-4.29;65.52;96950.22;1786996;80;20993;-66
2022/01/12 09:21:13;;;;;;;16.53;8.00;;;;;;;-4.23;65.35;96951.89;1786922;80;21057;-67
2022/01/12 09:23:40;;;;;;;21.20;9.90;;;;;;;-4.17;64.75;96954.83;1787082;80;21034;-66
2022/01/12 09:26:06;;;;;;;13.40;6.70;;;;;;;-3.99;64.90;96955.91;1786777;80;20988;-67
2022/01/12 09:28:35;;;;;;;14.97;7.87;;;;;;;-3.92;64.56;96951.60;1786961;80;21018;-67
2022/01/12 09:31:01;;;;;;;16.30;8.03;;;;;;;-3.88;65.10;96942.75;1786924;80;21520;-67
2022/01/12 09:33:28;;;;;;;16.53;8.07;;;;;;;-3.82;64.69;96947.88;1786909;80;21011;-67
2022/01/12 09:35:55;;;;;;;26.17;12.97;;;;;;;-3.90;65.36;96946.95;1786651;80;21015;-67
2022/01/12 09:38:22;;;;;;;19.93;10.80;;;;;;;-3.71;66.21;96949.38;1787418;80;20991;-67
2022/01/12 09:40:53;;;;;;;23.53;11.80;;;;;;;-3.55;66.81;96942.13;1787139;80;21516;-67
2022/01/12 09:43:23;;;;;;;23.30;11.23;;;;;;;-3.36;67.39;96949.62;1787039;80;21417;-67
2022/01/12 09:45:52;;;;;;;20.87;10.20;;;;;;;-3.39;66.99;96936.55;1787221;80;21022;-66
2022/01/12 09:48:25;;;;;;;19.63;9.50;;;;;;;-3.13;66.78;96933.71;1786846;80;21430;-67
2022/01/12 09:50:53;;;;;;;;;;;;;;;-3.23;65.82;96940.87;1789663;80;21543;-67
2022/01/12 09:53:20;;;;;;;15.63;7.73;;;;;;;-3.13;65.39;96937.58;1756188;81;20098;-67
2022/01/12 09:55:48;;;;;;;24.50;12.23;;;;;;;-2.95;65.33;96937.73;1786829;80;21102;-67
2022/01/12 09:58:15;;;;;;;21.30;9.20;;;;;;;-2.75;65.41;96936.20;1786718;80;21015;-67
2022/01/12 10:00:59;;;;;;;20.20;10.57;;;;;;;-2.73;64.80;96928.14;1786778;80;21042;-66
2022/01/12 10:03:27;;;;;;;21.30;10.25;;;;;;;-2.21;64.26;96933.48;1786908;80;21487;-67
2022/01/12 10:05:54;;;;;;;24.03;12.30;;;;;;;-1.70;62.85;96923.13;1786867;80;21023;-67
2022/01/12 10:08:21;;;;;;;19.10;10.00;;;;;;;-1.08;61.49;96912.76;1786795;80;20983;-67
2022/01/12 10:11:05;;;;;;;19.13;9.30;;;;;;;-0.57;60.44;96909.50;1786839;80;21015;-68
2022/01/12 10:13:37;;;;;;;27.37;11.90;;;;;;;-0.23;59.48;96909.70;1736593;80;21031;-69
2022/01/12 10:16:16;;;;;;;22.30;11.87;;;;;;;0.02;56.56;96911.66;1787155;80;21087;-69
2022/01/12 10:18:53;;;;;;;19.63;11.20;;;;;;;0.31;55.19;96906.42;1786900;80;20963;-69
2022/01/12 10:21:40;;;;;;;27.27;13.27;;;;;;;0.67;53.24;96900.95;1786892;80;21022;-68
2022/01/12 10:24:11;;;;;;;29.47;16.27;;;;;;;1.10;53.35;96900.06;1786995;80;21505;-69
2022/01/12 10:26:42;;;;;;;29.80;16.40;;;;;;;1.35;52.47;96895.39;1786790;80;20999;-69
2022/01/12 10:29:17;;;;;;;20.07;11.10;;;;;;;1.20;51.40;96891.78;1787210;80;20979;-68
2022/01/12 10:31:51;;;;;;;18.17;9.93;;;;;;;1.72;50.54;96891.14;1787087;80;21046;-68
2022/01/12 10:34:29;;;;;;;20.97;12.20;;;;;;;1.88;48.42;96884.76;1785973;80;21019;-70
2022/01/12 10:36:58;;;;;;;18.77;10.37;;;;;;;2.20;48.37;96881.11;1747422;80;21108;-70
2022/01/12 10:39:27;;;;;;;13.83;8.50;;;;;;;2.15;47.44;96877.04;1785737;80;21126;-67
2022/01/12 10:42:04;;;;;;;18.47;11.30;;;;;;;2.22;47.01;96874.24;1786413;80;20976;-66
2022/01/12 10:44:36;;;;;;;41.30;21.57;;;;;;;2.41;48.62;96882.24;1786109;80;21513;-68
2022/01/12 10:47:20;;;;;;;45.13;26.70;;;;;;;2.75;45.84;96879.04;1786534;80;21010;-67
2022/01/12 10:50:07;;;;;;;27.07;18.53;;;;;;;2.96;47.44;96879.25;1786491;80;20991;-69
2022/01/12 10:52:39;;;;;;;78.30;43.73;;;;;;;3.27;46.24;96879.77;1787025;80;21469;-68
2022/01/12 10:55:13;;;;;;;30.03;16.80;;;;;;;3.57;45.63;96864.56;1787052;80;20994;-68
2022/01/12 10:57:44;;;;;;;20.83;13.83;;;;;;;4.11;45.66;96862.61;1749359;80;20999;-68
2022/01/12 11:00:18;;;;;;;27.70;17.60;;;;;;;4.42;45.72;96863.41;1787101;80;21007;-68
2022/01/12 11:02:55;;;;;;;17.20;10.47;;;;;;;4.52;43.64;96864.09;1787017;80;21055;-67
2022/01/12 11:05:25;;;;;;;34.03;21.87;;;;;;;4.60;44.42;96866.90;1786604;80;21386;-68
2022/01/12 11:07:53;;;;;;;58.13;36.97;;;;;;;4.83;43.10;96865.27;1786894;80;20972;-68
2022/01/12 11:10:27;;;;;;;228.43;144.23;;;;;;;4.94;43.23;96869.05;1787581;80;21078;-67
2022/01/12 11:12:53;;;;;;;91.23;51.07;;;;;;;5.11;43.42;96866.38;1787012;80;21090;-67
2022/01/12 11:15:22;;;;;;;189.63;96.27;;;;;;;5.40;42.72;96868.78;1786905;80;20992;-67
2022/01/12 11:17:53;;;;;;;130.63;76.97;;;;;;;5.24;43.30;96879.34;1786583;80;21086;-68
2022/01/12 11:20:31;;;;;;;176.50;112.77;;;;;;;5.12;43.09;96877.75;1786907;80;21468;-67
2022/01/12 11:23:08;;;;;;;41.18;27.98;;;;;;;5.14;42.36;96876.02;1786674;80;21046;-67
2022/01/12 11:25:48;;;;;;;70.17;52.35;;;;;;;5.44;42.38;96870.59;1787116;80;20994;-67
2022/01/12 11:28:23;;;;;;;29.27;19.98;;;;;;;5.62;42.70;96874.94;1776730;80;21070;-67
2022/01/12 11:30:58;;;;;;;51.35;39.80;;;;;;;5.75;42.56;96875.20;1787244;80;21022;-67
2022/01/12 11:33:42;;;;;;;19.12;12.28;;;;;;;6.14;41.80;96874.24;1786979;80;21019;-67
2022/01/12 11:36:27;;;;;;;25.12;19.12;;;;;;;5.85;40.22;96867.98;1787073;80;20971;-67
2022/01/12 11:39:10;;;;;;;18.48;12.03;;;;;;;5.70;41.96;96875.53;1784756;80;21089;-67
2022/01/12 11:41:45;;;;;;;16.80;11.03;;;;;;;5.74;41.31;96880.83;1786923;80;20999;-67
2022/01/12 11:44:28;;;;;;;28.12;20.32;;;;;;;5.61;41.35;96879.70;1786918;80;21023;-67
2022/01/12 11:46:57;;;;;;;21.93;13.90;;;;;;;5.79;40.68;96877.01;1786715;80;21114;-67
2022/01/12 11:49:31;;;;;;;24.67;14.45;;;;;;;5.60;40.92;96872.70;1786624;80;21079;-67
2022/01/12 11:52:04;;;;;;;26.52;15.83;;;;;;;5.28;41.71;96885.08;1786627;80;21058;-67
2022/01/12 11:54:43;;;;;;;20.90;12.93;;;;;;;4.79;42.46;96893.09;1786653;80;21094;-67
2022/01/12 11:57:18;;;;;;;21.20;14.55;;;;;;;4.42;42.04;96886.05;1786256;80;20999;-67
2022/01/12 11:59:58;;;;;;;20.97;13.10;;;;;;;4.71;42.78;96878.53;1784480;80;21026;-67
2022/01/12 12:02:38;;;;;;;24.13;16.27;;;;;;;4.18;42.53;96887.58;1786715;80;20947;-69
2022/01/12 12:05:11;;;;;;;17.23;11.80;;;;;;;3.73;44.15;96902.02;1787007;80;21501;-69
2022/01/12 12:08:02;;;;;;;32.53;20.77;;;;;;;3.44;44.59;96914.20;1786379;80;21007;-69
2022/01/12 12:10:31;;;;;;;19.50;12.97;;;;;;;3.50;45.40;96903.05;1786930;80;20975;-69
2022/01/12 12:13:00;;;;;;;20.23;12.73;;;;;;;3.01;45.60;96912.45;1786781;80;21010;-69
2022/01/12 12:15:31;;;;;;;26.73;16.70;;;;;;;3.14;45.57;96902.41;1786024;80;21634;-69
2022/01/12 12:18:00;;;;;;;32.80;19.67;;;;;;;3.26;46.53;96910.61;1785971;80;21066;-68
2022/01/12 12:20:27;;;;;;;26.00;16.07;;;;;;;3.51;45.52;96908.76;1786259;80;21006;-68
2022/01/12 12:22:54;;;;;;;87.00;47.33;;;;;;;3.76;44.20;96902.53;1786463;80;21023;-69
2022/01/12 12:25:25;;;;;;;27.90;19.60;;;;;;;4.21;43.90;96897.70;1786459;80;21010;-68
2022/01/12 12:28:01;;;;;;;22.97;15.00;;;;;;;4.41;42.06;96895.62;1786364;80;21010;-67
2022/01/12 12:30:32;;;;;;;23.60;15.53;;;;;;;4.85;41.95;96895.84;1786478;80;21035;-67
2022/01/12 12:33:12;;;;;;;19.80;13.35;;;;;;;4.55;41.83;96897.27;1787012;80;21015;-68
2022/01/12 12:35:43;;;;;;;25.50;16.93;;;;;;;4.05;42.49;96899.41;1786885;80;20991;-66
2022/01/12 12:38:14;;;;;;;37.30;24.60;;;;;;;3.79;42.70;96906.53;1788902;80;21026;-66
2022/01/12 12:40:46;;;;;;;22.97;15.80;;;;;;;2.81;44.54;96907.89;1795505;80;21002;-66
2022/01/12 12:43:27;;;;;;;35.80;23.07;;;;;;;2.16;46.66;96906.14;1793712;80;20990;-68
2022/01/12 12:46:00;;;;;;;37.10;23.40;;;;;;;2.00;48.06;96912.08;1795696;80;21021;-68